createdAt,value
2022-11-26T00:01:31.208Z,7.59
2022-11-26T00:04:03.949Z,7.59
2022-11-26T00:06:37.361Z,7.57
2022-11-26T00:09:08.607Z,7.57
2022-11-26T00:11:38.338Z,7.55
2022-11-26T00:14:15.336Z,7.53
2022-11-26T00:16:45.311Z,7.54
2022-11-26T00:19:17.712Z,7.52
2022-11-26T00:21:47.483Z,7.51
2022-11-26T00:24:29.761Z,7.50
2022-11-26T00:27:01.806Z,7.50
2022-11-26T00:29:31.595Z,7.49
2022-11-26T00:32:01.419Z,7.48
2022-11-26T00:34:33.805Z,7.47
2022-11-26T00:37:03.575Z,7.46
2022-11-26T00:39:33.339Z,7.45
2022-11-26T00:42:03.328Z,7.43
2022-11-26T00:44:35.423Z,7.44
2022-11-26T00:47:05.568Z,7.45
2022-11-26T00:49:37.880Z,7.44
2022-11-26T00:52:12.897Z,7.44
2022-11-26T00:54:42.598Z,7.45
2022-11-26T00:57:13.676Z,7.45
2022-11-26T00:59:43.351Z,7.46
2022-11-26T01:02:13.702Z,7.46
2022-11-26T01:04:46.051Z,7.43
2022-11-26T01:07:15.836Z,7.42
2022-11-26T01:09:47.388Z,7.40
2022-11-26T01:12:17.984Z,7.38
2022-11-26T01:14:47.707Z,7.37
2022-11-26T01:17:17.419Z,7.36
2022-11-26T01:19:49.766Z,7.34
2022-11-26T01:22:23.791Z,7.33
2022-11-26T01:24:53.605Z,7.31
2022-11-26T01:27:23.956Z,7.30
2022-11-26T01:29:53.644Z,7.28
2022-11-26T01:32:29.205Z,7.26
2022-11-26T01:35:01.851Z,7.26
2022-11-26T01:37:31.571Z,7.25
2022-11-26T01:40:01.388Z,7.22
2022-11-26T01:42:44.368Z,7.22
2022-11-26T01:45:18.663Z,7.19
2022-11-26T01:47:49.299Z,7.15
2022-11-26T01:50:55.013Z,7.14
2022-11-26T01:53:32.717Z,7.11
2022-11-26T01:56:04.777Z,7.07
2022-11-26T01:58:40.233Z,7.07
2022-11-26T02:01:10.578Z,7.05
2022-11-26T02:03:46.749Z,7.04
2022-11-26T02:06:23.934Z,7.03
2022-11-26T02:08:53.962Z,7.02
2022-11-26T02:11:27.992Z,7.01
2022-11-26T02:14:03.151Z,7.01
2022-11-26T02:16:57.024Z,6.99
2022-11-26T02:20:03.143Z,6.98
2022-11-26T02:23:05.142Z,6.98
2022-11-26T02:26:05.931Z,6.98
2022-11-26T02:28:55.234Z,6.97
2022-11-26T02:31:35.603Z,6.97
2022-11-26T02:34:14.968Z,6.96
2022-11-26T02:36:52.535Z,6.96
2022-11-26T02:39:24.417Z,6.94
2022-11-26T02:41:57.048Z,6.92
2022-11-26T02:44:29.742Z,6.92
2022-11-26T02:47:06.804Z,6.91
2022-11-26T02:49:38.461Z,6.91
2022-11-26T02:52:10.145Z,6.91
2022-11-26T02:54:41.829Z,6.90
2022-11-26T02:57:15.756Z,6.90
2022-11-26T02:59:45.801Z,6.89
2022-11-26T03:02:26.667Z,6.89
2022-11-26T03:05:01.236Z,6.86
2022-11-26T03:07:33.118Z,6.86
2022-11-26T03:10:04.730Z,6.85
2022-11-26T03:12:34.569Z,6.83
2022-11-26T03:15:04.499Z,6.83
2022-11-26T03:17:37.127Z,6.83
2022-11-26T03:20:08.099Z,6.81
2022-11-26T03:22:37.930Z,6.80
2022-11-26T03:25:09.012Z,6.80
2022-11-26T03:27:38.859Z,6.78
2022-11-26T03:30:10.635Z,6.74
2022-11-26T03:32:43.097Z,6.73
2022-11-26T03:35:12.920Z,6.70
2022-11-26T03:37:42.728Z,6.70
2022-11-26T03:40:13.451Z,6.70
2022-11-26T03:42:43.177Z,6.72
2022-11-26T03:45:14.839Z,6.70
2022-11-26T03:47:47.861Z,6.70
2022-11-26T03:50:17.603Z,6.72
2022-11-26T03:52:47.313Z,6.71
2022-11-26T03:55:17.060Z,6.71
2022-11-26T03:57:46.815Z,6.72
2022-11-26T04:00:17.799Z,6.72
2022-11-26T04:02:50.316Z,6.73
2022-11-26T04:05:20.233Z,6.73
2022-11-26T04:07:50.144Z,6.70
2022-11-26T04:10:20.208Z,6.71
2022-11-26T04:12:49.947Z,6.73
2022-11-26T04:15:19.864Z,6.75
2022-11-26T04:17:52.202Z,6.75
2022-11-26T04:20:22.097Z,6.73
2022-11-26T04:22:51.829Z,6.75
2022-11-26T04:25:21.736Z,6.74
2022-11-26T04:27:51.509Z,6.74
2022-11-26T04:30:21.379Z,6.74
2022-11-26T04:32:53.769Z,6.74
2022-11-26T04:35:23.521Z,6.74
2022-11-26T04:37:53.310Z,6.76
2022-11-26T04:40:23.247Z,6.76
2022-11-26T04:42:53.054Z,6.76
2022-11-26T04:45:22.836Z,6.77
2022-11-26T04:50:42.449Z,6.79
2022-11-26T04:53:12.564Z,6.79
2022-11-26T04:55:42.297Z,6.80
2022-11-26T04:58:12.056Z,6.81
2022-11-26T05:00:41.848Z,6.82
2022-11-26T05:03:11.641Z,6.81
2022-11-26T05:05:44.409Z,6.81
2022-11-26T05:08:14.264Z,6.81
2022-11-26T05:10:44.271Z,6.82
2022-11-26T05:13:14.136Z,6.80
2022-11-26T05:15:43.881Z,6.80
2022-11-26T05:18:13.584Z,6.80
2022-11-26T05:20:45.973Z,6.81
2022-11-26T05:23:15.825Z,6.79
2022-11-26T05:25:45.640Z,6.79
2022-11-26T05:28:15.450Z,6.79
2022-11-26T05:30:45.506Z,6.79
2022-11-26T05:33:15.263Z,6.78
2022-11-26T05:35:47.639Z,6.77
2022-11-26T05:38:17.432Z,6.76
2022-11-26T05:40:47.406Z,6.74
2022-11-26T05:43:17.240Z,6.74
2022-11-26T05:45:47.040Z,6.74
2022-11-26T05:48:16.865Z,6.72
2022-11-26T05:50:54.369Z,6.72
2022-11-26T05:53:24.325Z,6.70
2022-11-26T05:55:54.222Z,6.71
2022-11-26T05:58:23.948Z,6.72
2022-11-26T06:00:53.791Z,6.74
2022-11-26T06:03:23.603Z,6.77
2022-11-26T06:05:56.123Z,6.79
2022-11-26T06:08:25.852Z,6.77
2022-11-26T06:10:55.563Z,6.76
2022-11-26T06:13:25.368Z,6.77
2022-11-26T06:15:55.096Z,6.76
2022-11-26T06:18:24.823Z,6.76
2022-11-26T06:20:57.124Z,6.77
2022-11-26T06:23:26.841Z,6.76
2022-11-26T06:25:57.589Z,6.76
2022-11-26T06:28:27.695Z,6.77
2022-11-26T06:30:57.512Z,6.77
2022-11-26T06:33:27.302Z,6.77
2022-11-26T06:36:01.851Z,6.79
2022-11-26T06:38:31.648Z,6.77
2022-11-26T06:41:02.709Z,6.75
2022-11-26T06:43:33.191Z,6.75
2022-11-26T06:46:05.805Z,6.75
2022-11-26T06:48:37.536Z,6.72
2022-11-26T06:51:11.729Z,6.70
2022-11-26T06:53:41.688Z,6.68
2022-11-26T06:56:18.474Z,6.66
2022-11-26T06:58:49.698Z,6.63
2022-11-26T07:01:21.493Z,6.62
2022-11-26T07:03:51.409Z,6.59
2022-11-26T07:06:25.910Z,6.56
2022-11-26T07:08:58.039Z,6.52
2022-11-26T07:11:28.526Z,6.50
2022-11-26T07:13:58.251Z,6.47
2022-11-26T07:16:28.412Z,6.46
2022-11-26T07:19:02.918Z,6.45
2022-11-26T07:21:35.731Z,6.43
2022-11-26T07:24:05.457Z,6.43
2022-11-26T07:26:35.340Z,6.41
2022-11-26T07:29:05.166Z,6.41
2022-11-26T07:31:36.287Z,6.41
2022-11-26T07:34:06.103Z,6.40
2022-11-26T07:36:43.059Z,6.42
2022-11-26T07:39:14.283Z,6.41
2022-11-26T07:41:45.163Z,6.42
2022-11-26T07:44:16.264Z,6.43
2022-11-26T07:46:45.995Z,6.45
2022-11-26T07:49:16.259Z,6.47
2022-11-26T07:51:48.627Z,6.47
2022-11-26T07:54:18.328Z,6.50
2022-11-26T07:56:48.023Z,6.52
2022-11-26T07:59:17.747Z,6.53
2022-11-26T08:01:48.383Z,6.57
2022-11-26T08:04:18.127Z,6.60
2022-11-26T08:06:50.535Z,6.63
2022-11-26T08:09:20.385Z,6.66
2022-11-26T08:11:50.106Z,6.71
2022-11-26T08:14:19.839Z,6.75
2022-11-26T08:16:49.570Z,6.81
2022-11-26T08:19:19.512Z,6.85
2022-11-26T08:21:51.847Z,6.90
2022-11-26T08:24:23.935Z,6.94
2022-11-26T08:26:53.657Z,6.99
2022-11-26T08:29:23.385Z,7.02
2022-11-26T08:31:53.179Z,7.07
2022-11-26T08:34:22.939Z,7.10
2022-11-26T08:36:58.190Z,7.14
2022-11-26T08:39:27.985Z,7.19
2022-11-26T08:41:58.909Z,7.23
2022-11-26T08:44:28.736Z,7.25
2022-11-26T08:46:58.440Z,7.27
2022-11-26T08:49:28.340Z,7.31
2022-11-26T08:52:00.975Z,7.33
2022-11-26T08:54:30.971Z,7.36
2022-11-26T08:57:00.698Z,7.37
2022-11-26T08:59:30.397Z,7.39
2022-11-26T09:02:00.334Z,7.42
2022-11-26T09:04:30.159Z,7.44
2022-11-26T09:07:02.594Z,7.46
2022-11-26T09:09:32.682Z,7.48
2022-11-26T09:12:06.641Z,7.50
2022-11-26T09:14:40.076Z,7.53
2022-11-26T09:17:10.679Z,7.56
2022-11-26T09:19:40.419Z,7.59
2022-11-26T09:22:12.788Z,7.61
2022-11-26T09:24:42.507Z,7.64
2022-11-26T09:27:13.497Z,7.67
2022-11-26T09:29:43.287Z,7.71
2022-11-26T09:32:24.460Z,7.73
2022-11-26T09:34:56.769Z,7.74
2022-11-26T09:37:29.069Z,7.76
2022-11-26T09:39:58.818Z,7.78
2022-11-26T09:42:41.184Z,7.80
2022-11-26T09:45:21.182Z,7.83
2022-11-26T09:47:55.655Z,7.86
2022-11-26T09:50:31.874Z,7.91
2022-11-26T09:53:08.143Z,7.94
2022-11-26T09:55:40.594Z,7.99
2022-11-26T09:58:15.135Z,8.02
2022-11-26T10:00:47.047Z,8.05
2022-11-26T10:03:19.146Z,8.08
2022-11-26T10:06:00.471Z,8.12
2022-11-26T10:08:49.547Z,8.16
2022-11-26T10:11:26.941Z,8.18
2022-11-26T10:14:06.071Z,8.21
2022-11-26T10:16:46.686Z,8.26
2022-11-26T10:19:26.122Z,8.28
2022-11-26T10:21:59.792Z,8.29
2022-11-26T10:24:36.979Z,8.33
2022-11-26T10:27:13.755Z,8.34
2022-11-26T10:29:46.272Z,8.35
2022-11-26T10:32:18.881Z,8.36
2022-11-26T10:34:53.256Z,8.39
2022-11-26T10:37:24.699Z,8.41
2022-11-26T10:40:04.503Z,8.45
2022-11-26T10:42:44.248Z,8.48
2022-11-26T10:45:22.433Z,8.50
2022-11-26T10:47:52.532Z,8.53
2022-11-26T10:50:46.833Z,8.57
2022-11-26T10:53:24.252Z,8.61
2022-11-26T10:55:58.319Z,8.65
2022-11-26T10:58:29.844Z,8.70
2022-11-26T11:01:06.045Z,8.74
2022-11-26T11:06:40.152Z,8.80
2022-11-26T11:09:33.083Z,8.83
2022-11-26T11:12:29.292Z,8.85
2022-11-26T11:14:59.434Z,8.87
2022-11-26T11:17:35.221Z,8.92
2022-11-26T11:20:26.279Z,8.92
2022-11-26T11:23:03.338Z,8.94
2022-11-26T11:25:36.013Z,8.98
2022-11-26T11:28:16.942Z,9.03
2022-11-26T11:30:47.477Z,9.06
2022-11-26T11:33:24.894Z,9.08
2022-11-26T11:36:03.286Z,9.13
2022-11-26T11:38:35.363Z,9.15
2022-11-26T11:41:07.864Z,9.18
2022-11-26T11:43:40.923Z,9.22
2022-11-26T11:46:28.178Z,9.24
2022-11-26T11:49:09.492Z,9.27
2022-11-26T11:51:49.205Z,9.33
2022-11-26T11:54:23.831Z,9.35
2022-11-26T11:57:03.841Z,9.38
2022-11-26T12:00:10.906Z,9.41
2022-11-26T12:03:14.511Z,9.45
2022-11-26T12:06:12.638Z,9.47
2022-11-26T12:08:53.533Z,9.48
2022-11-26T12:11:36.155Z,9.52
2022-11-26T12:14:13.991Z,9.56
2022-11-26T12:16:51.022Z,9.58
2022-11-26T12:19:28.402Z,9.60
2022-11-26T12:22:07.059Z,9.64
2022-11-26T12:24:44.740Z,9.68
2022-11-26T12:27:26.887Z,9.71
2022-11-26T12:30:01.837Z,9.74
2022-11-26T12:32:40.414Z,9.76
2022-11-26T12:35:18.568Z,9.79
2022-11-26T12:37:53.294Z,9.81
2022-11-26T12:40:33.421Z,9.82
2022-11-26T12:43:09.783Z,9.84
2022-11-26T12:45:51.003Z,9.86
2022-11-26T12:48:46.405Z,9.87
2022-11-26T12:51:36.320Z,9.88
2022-11-26T12:54:18.194Z,9.89
2022-11-26T12:56:59.984Z,9.89
2022-11-26T12:59:36.007Z,9.90
2022-11-26T13:02:22.498Z,9.90
2022-11-26T13:04:56.844Z,9.91
2022-11-26T13:07:45.451Z,9.92
2022-11-26T13:10:28.940Z,9.91
2022-11-26T13:13:08.173Z,9.91
2022-11-26T13:15:42.950Z,9.92
2022-11-26T13:18:19.929Z,9.92
2022-11-26T13:21:07.965Z,9.93
2022-11-26T13:24:00.914Z,9.93
2022-11-26T13:26:47.888Z,9.92
2022-11-26T13:29:38.502Z,9.91
2022-11-26T13:32:29.103Z,9.90
2022-11-26T13:35:16.501Z,9.90
2022-11-26T13:38:17.044Z,9.90
2022-11-26T13:41:21.898Z,9.89
2022-11-26T13:44:15.815Z,9.89
2022-11-26T13:46:49.596Z,9.89
2022-11-26T13:49:24.037Z,9.90
2022-11-26T13:51:58.316Z,9.89
2022-11-26T13:54:37.896Z,9.87
2022-11-26T13:57:12.211Z,9.88
2022-11-26T13:59:50.047Z,9.87
2022-11-26T14:02:42.755Z,9.87
2022-11-26T14:05:15.508Z,9.86
2022-11-26T14:07:46.420Z,9.85
2022-11-26T14:10:46.310Z,9.86
2022-11-26T14:13:18.101Z,9.85
2022-11-26T14:16:03.139Z,9.83
2022-11-26T14:19:05.291Z,9.83
2022-11-26T14:21:35.034Z,9.80
2022-11-26T14:24:04.765Z,9.79
2022-11-26T14:26:39.390Z,9.80
2022-11-26T14:29:17.635Z,9.79
2022-11-26T14:31:53.909Z,9.79
2022-11-26T14:34:31.895Z,9.78
2022-11-26T14:37:03.099Z,9.79
2022-11-26T14:39:33.476Z,9.78
2022-11-26T14:42:06.701Z,9.77
2022-11-26T14:44:36.972Z,9.75
2022-11-26T14:47:14.032Z,9.74
2022-11-26T14:49:47.167Z,9.72
2022-11-26T14:52:21.297Z,9.70
2022-11-26T14:54:54.470Z,9.69
2022-11-26T14:57:31.875Z,9.67
2022-11-26T15:00:03.073Z,9.67
2022-11-26T15:02:34.220Z,9.66
2022-11-26T15:05:05.312Z,9.67
2022-11-26T15:07:35.142Z,9.67
2022-11-26T15:10:07.582Z,9.66
2022-11-26T15:12:40.176Z,9.66
2022-11-26T15:15:16.223Z,9.64
2022-11-26T15:17:48.445Z,9.66
2022-11-26T15:20:20.759Z,9.65
2022-11-26T15:22:53.107Z,9.65
2022-11-26T15:25:24.938Z,9.63
2022-11-26T15:28:01.847Z,9.63
2022-11-26T15:30:32.974Z,9.62
2022-11-26T15:33:04.571Z,9.62
2022-11-26T15:35:36.390Z,9.60
2022-11-26T15:38:10.458Z,9.60
2022-11-26T15:40:48.449Z,9.59
2022-11-26T15:43:27.665Z,9.59
2022-11-26T15:46:01.269Z,9.58
2022-11-26T15:48:51.466Z,9.59
2022-11-26T15:51:33.743Z,9.59
2022-11-26T15:54:06.516Z,9.56
2022-11-26T15:56:39.840Z,9.57
2022-11-26T15:59:18.197Z,9.57
2022-11-26T16:01:49.994Z,9.53
2022-11-26T16:04:42.901Z,9.54
2022-11-26T16:07:15.106Z,9.51
2022-11-26T16:09:45.411Z,9.50
2022-11-26T16:12:33.034Z,9.49
2022-11-26T16:15:22.458Z,9.48
2022-11-26T16:17:53.341Z,9.47
2022-11-26T16:20:25.362Z,9.45
2022-11-26T16:22:57.203Z,9.43
2022-11-26T16:25:29.355Z,9.42
2022-11-26T16:28:10.161Z,9.39
2022-11-26T16:30:44.520Z,9.39
2022-11-26T16:33:14.322Z,9.38
2022-11-26T16:35:45.671Z,9.37
2022-11-26T16:38:22.188Z,9.35
2022-11-26T16:40:52.357Z,9.34
2022-11-26T16:43:22.734Z,9.32
2022-11-26T16:45:57.990Z,9.31
2022-11-26T16:48:29.903Z,9.28
2022-11-26T16:50:59.696Z,9.25
2022-11-26T16:53:29.409Z,9.23
2022-11-26T16:56:00.520Z,9.21
2022-11-26T16:58:32.283Z,9.20
2022-11-26T17:01:05.019Z,9.17
2022-11-26T17:03:35.567Z,9.14
2022-11-26T17:06:12.867Z,9.13
2022-11-26T17:08:49.255Z,9.08
2022-11-26T17:11:20.485Z,9.06
2022-11-26T17:13:50.372Z,9.02
2022-11-26T17:16:26.112Z,9.02
2022-11-26T17:18:56.052Z,8.98
2022-11-26T17:21:25.793Z,8.96
2022-11-26T17:23:55.533Z,8.94
2022-11-26T17:26:26.842Z,8.92
2022-11-26T17:28:56.576Z,8.90
2022-11-26T17:31:29.979Z,8.87
2022-11-26T17:33:59.879Z,8.86
2022-11-26T17:36:33.838Z,8.85
2022-11-26T17:39:06.628Z,8.83
2022-11-26T17:41:36.348Z,8.81
2022-11-26T17:44:06.233Z,8.80
2022-11-26T17:46:54.474Z,8.78
2022-11-26T17:49:28.507Z,8.76
2022-11-26T17:51:58.227Z,8.73
2022-11-26T17:54:27.929Z,8.72
2022-11-26T17:56:57.644Z,8.72
2022-11-26T17:59:28.757Z,8.72
2022-11-26T18:02:02.667Z,8.70
2022-11-26T18:04:32.796Z,8.69
2022-11-26T18:07:08.489Z,8.66
2022-11-26T18:09:38.845Z,8.65
2022-11-26T18:12:12.138Z,8.61
2022-11-26T18:14:44.088Z,8.60
2022-11-26T18:17:16.659Z,8.59
2022-11-26T18:19:46.693Z,8.56
2022-11-26T18:22:19.299Z,8.55
2022-11-26T18:24:56.845Z,8.53
2022-11-26T18:27:28.739Z,8.52
2022-11-26T18:29:59.654Z,8.50
2022-11-26T18:32:32.188Z,8.48
2022-11-26T18:35:01.913Z,8.46
2022-11-26T18:37:31.891Z,8.45
2022-11-26T18:40:01.808Z,8.45
2022-11-26T18:42:39.010Z,8.44
2022-11-26T18:45:11.967Z,8.41
2022-11-26T18:47:44.439Z,8.40
2022-11-26T18:50:14.599Z,8.40
2022-11-26T18:52:44.325Z,8.39
2022-11-26T18:55:17.737Z,8.39
2022-11-26T18:57:47.416Z,8.40
2022-11-26T19:00:18.128Z,8.40
2022-11-26T19:02:50.634Z,8.40
2022-11-26T19:05:20.672Z,8.39
2022-11-26T19:07:50.394Z,8.38
2022-11-26T19:10:20.217Z,8.39
2022-11-26T19:12:51.384Z,8.38
2022-11-26T19:15:21.080Z,8.37
2022-11-26T19:17:53.375Z,8.37
2022-11-26T19:20:23.095Z,8.37
2022-11-26T19:22:52.803Z,8.37
2022-11-26T19:25:22.515Z,8.37
2022-11-26T19:27:52.415Z,8.36
2022-11-26T19:30:23.150Z,8.36
2022-11-26T19:32:55.544Z,8.36
2022-11-26T19:35:26.256Z,8.35
2022-11-26T19:37:55.943Z,8.36
2022-11-26T19:40:25.640Z,8.37
2022-11-26T19:42:55.336Z,8.38
2022-11-26T19:45:26.344Z,8.38
2022-11-26T19:47:58.630Z,8.39
2022-11-26T19:50:29.035Z,8.42
2022-11-26T19:52:58.694Z,8.41
2022-11-26T19:55:28.409Z,8.42
2022-11-26T19:57:58.423Z,8.43
2022-11-26T20:00:28.144Z,8.42
2022-11-26T20:03:00.633Z,8.45
2022-11-26T20:05:30.367Z,8.44
2022-11-26T20:08:00.175Z,8.44
2022-11-26T20:10:29.944Z,8.45
2022-11-26T20:12:59.653Z,8.45
2022-11-26T20:15:29.385Z,8.48
2022-11-26T20:18:01.987Z,8.49
2022-11-26T20:20:31.687Z,8.51
2022-11-26T20:23:01.518Z,8.51
2022-11-26T20:25:34.748Z,8.49
2022-11-26T20:28:05.111Z,8.50
2022-11-26T20:30:35.268Z,8.49
2022-11-26T20:33:07.663Z,8.49
2022-11-26T20:35:37.420Z,8.49
2022-11-26T20:38:07.128Z,8.49
2022-11-26T20:40:36.832Z,8.49
2022-11-26T20:43:06.575Z,8.49
2022-11-26T20:45:36.483Z,8.50
2022-11-26T20:48:09.571Z,8.53
2022-11-26T20:50:40.644Z,8.53
2022-11-26T20:53:10.456Z,8.54
2022-11-26T20:55:40.175Z,8.55
2022-11-26T20:58:10.444Z,8.56
2022-11-26T21:00:44.164Z,8.56
2022-11-26T21:03:16.456Z,8.57
2022-11-26T21:05:46.188Z,8.58
2022-11-26T21:08:16.298Z,8.59
2022-11-26T21:10:46.416Z,8.59
2022-11-26T21:13:18.108Z,8.60
2022-11-26T21:15:50.169Z,8.60
2022-11-26T21:18:23.243Z,8.61
2022-11-26T21:20:54.075Z,8.61
2022-11-26T21:23:23.837Z,8.61
2022-11-26T21:25:53.570Z,8.61
2022-11-26T21:28:23.386Z,8.62
2022-11-26T21:30:53.213Z,8.63
2022-11-26T21:33:25.607Z,8.64
2022-11-26T21:35:55.294Z,8.64
2022-11-26T21:38:26.749Z,8.63
2022-11-26T21:40:56.684Z,8.63
2022-11-26T21:43:26.356Z,8.63
2022-11-26T21:45:56.081Z,8.62
2022-11-26T21:48:28.631Z,8.62
2022-11-26T21:50:58.368Z,8.61
2022-11-26T21:53:28.315Z,8.59
2022-11-26T21:55:58.009Z,8.59
2022-11-26T21:58:27.707Z,8.60
2022-11-26T22:00:59.064Z,8.58
2022-11-26T22:03:31.383Z,8.59
2022-11-26T22:06:02.049Z,8.57
2022-11-26T22:08:31.935Z,8.56
2022-11-26T22:11:01.632Z,8.55
2022-11-26T22:13:31.621Z,8.53
2022-11-26T22:16:01.384Z,8.52
2022-11-26T22:18:34.005Z,8.52
2022-11-26T22:21:03.713Z,8.51
2022-11-26T22:23:33.454Z,8.50
2022-11-26T22:26:03.220Z,8.50
2022-11-26T22:28:33.123Z,8.49
2022-11-26T22:31:02.893Z,8.46
2022-11-26T22:33:35.318Z,8.45
2022-11-26T22:36:05.060Z,8.41
2022-11-26T22:38:35.251Z,8.39
2022-11-26T22:41:06.038Z,8.36
2022-11-26T22:43:35.895Z,8.32
2022-11-26T22:46:07.221Z,8.31
2022-11-26T22:48:40.156Z,8.29
2022-11-26T22:51:10.317Z,8.26
2022-11-26T22:53:40.467Z,8.21
2022-11-26T22:56:10.992Z,8.20
2022-11-26T22:58:40.711Z,8.16
2022-11-26T23:01:11.592Z,8.13
2022-11-26T23:03:44.066Z,8.12
2022-11-26T23:06:16.672Z,8.07
2022-11-26T23:08:47.543Z,8.06
2022-11-26T23:11:19.420Z,8.04
2022-11-26T23:13:50.594Z,8.02
2022-11-26T23:16:21.702Z,8.00
2022-11-26T23:18:54.554Z,7.96
2022-11-26T23:21:27.625Z,7.93
2022-11-26T23:23:57.778Z,7.92
2022-11-26T23:26:31.124Z,7.91
2022-11-26T23:29:02.591Z,7.89
2022-11-26T23:31:34.500Z,7.88
2022-11-26T23:34:07.745Z,7.85
2022-11-26T23:36:38.187Z,7.85
2022-11-26T23:39:10.650Z,7.84
2022-11-26T23:41:40.422Z,7.82
2022-11-26T23:44:10.135Z,7.82
2022-11-26T23:46:39.989Z,7.80
2022-11-26T23:49:12.553Z,7.80
2022-11-26T23:51:42.382Z,7.79
2022-11-26T23:54:12.151Z,7.78
2022-11-26T23:56:44.653Z,7.77
2022-11-26T23:59:15.339Z,7.78
